Hauptseite
METAR-TAF:

METAR-TAF

Flughäfen :

Yap, Mikronesien

Breite: 09-29N, Länge: 138-05E, Höhe: 28 m

Beobachtung

Neuester Wetterbericht von vor 53 Minuten, um 04:50 UTC
Wind 5 kt aus unterschiedlichen Richtungen
Temperatur 31°C
Luftfeuchtigkeit 75%
Luftdruck 1012 hPa
Sichtweite: 19.3 km
Leicht bewölkt in der Höhe von 1600 ft, Towering cumulus.
Aufgelockert bewölkt in der Höhe von 13000 ft
Durchbrochene Bewölkung in der Höhe von 30000 ft

METAR: PTYA 100450Z VRB05KT 12SM FEW016TCU SCT130 BKN300 31/26 A2988 RMK TCU W SLP120 T03080262

Zeit: 15:43 (05:43 UTC)

Prognose

Neuester Wetterbericht von vor 6 Stunden und 7 Minuten, um 23:36 UTC
Gültige Prognose vom 10 um 00 UTC bis 10 um 24 UTC
Wind 5 kt aus unterschiedlichen Richtungen
Sichtweite: 10 km
Leicht bewölkt in der Höhe von 1600 ft
Durchbrochene Bewölkung in der Höhe von 12000 ft
Schauer in der Nähe

TAF: PTYA 092336Z 1000/1024 VRB05KT P6SM VCSH FEW016 BKN120

Wetterbeobachtungen und Prognosen von mehr als 4000 Flughäfen (METAR und TAF Bericht).

Die verfügbaren Stationen werden durch gelbe und rote Markierungen auf der Karte dargestellt.

Führen Sie die Maus auf sie, um den Namen der Station zu sehen.

Darauf klicken, um die Beobachtung von Wetterbeobachtungen und Prognosen zu sehen.

Um die Karte zu ändern : klicken Sie auf den grünen Tasten mit einem schwarzen Kreuz Zum Vergrößern, auf den grünen Button mit einem Gedankenstrich zu verkleinern, oder auf die grünen Pfeile für benachbarte Karten.


METAR-TAF: